Latest Weather Observations for Latrobe Valley

IDV60801

Issued at 5:05 am EST Sunday 27 July 2014 (issued every 30 minutes, with the page automatically refreshed every 10 minutes)

About weather observations | Map of weather stations | Latest weather observations for VIC | Other Formats
Station Details ID: 085280 Name: LATROBE VALLEY AIRPORT Lat: -38.21 Lon: 146.47 Height: 55.7 m
Data from the previous 72 hours. | See also: Recent months at Latrobe Valley
Date/Time
EST
Temp
°C
App
Temp
°C
Dew
Point
Rel
Hum
%
Delta-T
°C
Wind Press
QNH
hPa
Press
MSL
hPa
Rain
since 9 am
mm
Dir
 
Spd
km/h
Gust
km/h
Spd
kts
Gust
kts
27/05:00am 9.0 7.1 8.9 99 0.0 WNW 9 13 5 7 1023.7 - 0.4
27/04:30am 9.5 6.9 9.4 99 0.0 W 13 17 7 9 1023.6 - 0.4
27/04:00am 10.5 7.4 10.3 99 0.1 W 17 24 9 13 1023.8 - 0.4
27/03:30am 10.5 7.4 10.3 99 0.1 W 17 24 9 13 1023.9 - 0.4
27/03:22am 10.4 6.9 10.2 99 0.1 W 19 24 10 13 1023.9 - 0.4
27/03:00am 10.7 7.7 10.5 99 0.1 WNW 17 24 9 13 1023.9 1024.0 0.4
27/02:30am 10.9 7.5 10.7 99 0.1 WNW 19 26 10 14 1024.0 - 0.4
27/02:00am 11.0 6.7 10.8 99 0.1 W 24 32 13 17 1024.1 - 0.2
27/01:30am 11.0 7.5 10.8 99 0.1 WNW 20 26 11 14 1024.1 - 0.2
27/01:00am 11.2 7.7 11.0 99 0.1 W 20 26 11 14 1024.1 - 0.2
27/12:30am 11.1 7.2 10.9 99 0.1 WNW 22 30 12 16 1024.2 - 0.2
27/12:17am 11.1 7.2 10.9 99 0.1 WNW 22 28 12 15 1024.1 - 0.2
27/12:08am 11.1 7.6 10.9 99 0.1 WNW 20 28 11 15 1024.2 - 0.2
27/12:00am 11.1 7.6 10.9 99 0.1 W 20 28 11 15 1024.3 1024.4 0.2
 
Date/Time
EST
Temp
°C
App
Temp
°C
Dew
Point
Rel
Hum
%
Delta-T
°C
Wind Press
QNH
hPa
Press
MSL
hPa
Rain
since 9 am
mm
Dir
 
Spd
km/h
Gust
km/h
Spd
kts
Gust
kts
26/11:54pm 11.1 7.2 10.9 99 0.1 W 22 30 12 16 1024.3 - 0.2
26/11:30pm 11.2 7.4 11.0 99 0.1 W 22 30 12 16 1024.3 - 0.2
26/11:05pm 11.1 7.6 10.9 99 0.1 W 20 28 11 15 1024.4 - 0.2
26/11:00pm 11.1 7.2 10.9 99 0.1 W 22 32 12 17 1024.4 - 0.2
26/10:50pm 11.2 7.0 11.0 99 0.1 W 24 33 13 18 1024.3 - 0.2
26/10:30pm 11.2 7.4 11.0 99 0.1 W 22 32 12 17 1024.2 - 0.2
26/10:14pm 11.2 7.4 11.0 99 0.1 W 22 30 12 16 1024.2 - 0.2
26/10:00pm 11.2 7.0 11.0 99 0.1 W 24 32 13 17 1024.2 - 0.2
26/09:30pm 11.1 6.5 10.9 99 0.1 WNW 26 33 14 18 1024.1 - 0.2
26/09:05pm 11.3 7.1 11.1 99 0.1 W 24 32 13 17 1024.0 - 0.2
26/09:00pm 11.3 7.5 11.1 99 0.1 W 22 30 12 16 1024.0 1024.1 0.2
26/08:30pm 11.5 7.7 11.0 97 0.3 W 22 28 12 15 1023.7 - 0.2
26/08:16pm 11.5 7.7 11.2 98 0.2 W 22 28 12 15 1023.6 - 0.2
26/08:00pm 11.4 7.5 10.9 97 0.3 W 22 32 12 17 1023.4 - 0.2
26/07:30pm 11.6 7.8 11.0 96 0.3 W 22 30 12 16 1023.3 - 0.2
26/07:00pm 11.5 7.7 11.0 97 0.3 W 22 30 12 16 1023.2 - 0.2
26/06:30pm 11.5 7.3 11.0 97 0.3 W 24 32 13 17 1022.9 - 0.2
26/06:03pm 11.7 8.0 11.4 98 0.2 W 22 32 12 17 1022.7 - 0.2
26/06:00pm 11.7 8.0 11.4 98 0.2 WNW 22 32 12 17 1022.6 1022.7 0.2
26/05:30pm 11.7 8.6 11.5 99 0.1 WNW 19 28 10 15 1022.5 - 0.2
26/05:00pm 11.7 8.9 11.5 99 0.1 WNW 17 26 9 14 1022.2 - 0.2
26/04:57pm 11.8 9.1 11.6 99 0.1 W 17 26 9 14 1022.3 - 0.2
26/04:30pm 11.9 7.4 11.4 97 0.3 WNW 26 37 14 20 1021.9 - 0.2
26/04:00pm 12.7 8.0 10.8 88 1.0 W 26 33 14 18 1021.6 - 0.0
26/03:30pm 12.5 8.7 11.1 91 0.7 W 22 32 12 17 1021.5 - 0.0
26/03:00pm 13.1 10.1 10.6 85 1.3 WNW 17 20 9 11 1021.3 1021.4 0.0
26/02:30pm 13.3 9.7 10.7 84 1.4 WNW 20 28 11 15 1021.1 - 0.0
26/02:00pm 13.2 9.8 11.1 87 1.1 W 20 26 11 14 1021.0 - 0.0
26/01:30pm 12.4 8.9 11.0 91 0.7 W 20 28 11 15 1021.1 - 0.0
26/01:00pm 13.0 8.9 10.2 83 1.4 W 22 30 12 16 1021.3 - 0.0
26/12:30pm 13.1 7.9 10.1 82 1.6 W 28 37 15 20 1021.5 - 0.0
26/12:00pm 13.1 7.9 10.3 83 1.4 W 28 37 15 20 1021.8 1021.9 0.0
26/11:59am 13.1 7.9 10.3 83 1.5 W 28 37 15 20 1021.8 - 0.0
26/11:33am 12.7 9.2 10.9 89 0.9 WNW 20 24 11 13 1022.1 - 0.0
26/11:30am 12.8 9.3 11.0 89 0.9 WNW 20 24 11 13 1022.1 - 0.0
26/11:20am 12.6 8.8 11.0 90 0.8 WNW 22 32 12 17 1022.2 - 0.0
26/11:00am 12.6 9.4 11.3 92 0.7 WNW 19 28 10 15 1022.2 - 0.0
26/10:30am 12.3 9.5 11.2 93 0.6 WNW 17 22 9 12 1022.4 - 0.0
26/10:08am 12.0 9.4 10.7 92 0.7 WNW 15 22 8 12 1022.4 - 0.0
26/10:00am 11.9 9.3 10.6 92 0.7 W 15 19 8 10 1022.3 - 0.0
26/09:30am 11.9 9.2 10.5 91 0.7 W 15 19 8 10 1022.1 - 0.0
26/09:00am 10.9 8.3 10.7 99 0.1 WNW 15 20 8 11 1022.0 1022.1 0.2
26/08:30am 8.9 8.3 8.9 100 0.0 WSW 2 7 1 4 1021.8 - 0.2
26/08:00am 8.1 7.7 8.1 100 0.0 CALM 0 0 0 0 1021.6 - 0.2
26/07:30am 7.6 6.3 7.6 100 0.0 SW 4 7 2 4 1021.4 - 0.0
26/07:00am 7.3 6.7 7.3 100 0.0 CALM 0 0 0 0 1021.1 - 0.0
26/06:30am 7.1 6.0 7.1 100 0.0 E 2 6 1 3 1020.9 - 0.0
26/06:00am 7.0 6.3 7.0 100 0.0 SE 0 0 0 0 1020.5 1020.6 0.0
26/05:51am 6.8 6.1 6.8 100 0.0 CALM 0 0 0 0 1020.5 - 0.0
26/05:30am 5.2 4.1 5.1 99 0.0 CALM 0 2 0 1 1020.3 - 0.0
26/05:20am 6.2 5.3 6.1 99 0.0 CALM 0 0 0 0 1020.3 - 0.0
26/05:00am 7.4 5.6 7.3 99 0.0 NE 6 7 3 4 1020.0 - 0.0
26/04:30am 7.2 6.5 7.1 99 0.0 CALM 0 0 0 0 1019.9 - 0.0
26/04:00am 8.2 7.8 8.1 99 0.0 CALM 0 0 0 0 1019.8 - 0.0
26/03:30am 9.0 8.8 8.9 99 0.0 CALM 0 4 0 2 1019.8 - 0.0
26/03:00am 8.6 8.3 8.5 99 0.0 CALM 0 0 0 0 1019.9 1020.0 0.0
26/02:30am 8.8 7.4 8.7 99 0.0 NNE 6 9 3 5 1019.9 - 0.0
26/02:00am 8.8 7.4 8.7 99 0.0 NNE 6 9 3 5 1019.9 - 0.0
26/01:30am 8.7 8.4 8.6 99 0.0 CALM 0 0 0 0 1019.7 - 0.0
26/01:00am 8.6 8.3 8.5 99 0.0 CALM 0 0 0 0 1019.7 - 0.0
26/12:30am 8.8 8.5 8.7 99 0.0 CALM 0 2 0 1 1019.6 - 0.0
26/12:00am 8.9 8.6 8.8 99 0.0 CALM 0 0 0 0 1019.7 1019.8 0.0
 
Date/Time
EST
Temp
°C
App
Temp
°C
Dew
Point
Rel
Hum
%
Delta-T
°C
Wind Press
QNH
hPa
Press
MSL
hPa
Rain
since 9 am
mm
Dir
 
Spd
km/h
Gust
km/h
Spd
kts
Gust
kts
25/11:30pm 8.6 8.2 8.3 98 0.1 CALM 0 0 0 0 1019.7 - 0.0
25/11:00pm 9.0 8.6 8.4 96 0.3 CALM 0 4 0 2 1019.6 - 0.0
25/10:30pm 9.2 8.8 8.3 94 0.4 CALM 0 0 0 0 1019.7 - 0.0
25/10:00pm 9.6 9.2 8.4 92 0.6 CALM 0 0 0 0 1019.5 - 0.0
25/09:30pm 9.9 9.6 8.5 91 0.7 CALM 0 2 0 1 1019.5 - 0.0
25/09:00pm 10.2 9.5 8.5 89 0.8 S 2 6 1 3 1019.4 1019.5 0.0
25/08:30pm 10.2 8.9 7.8 85 1.2 ESE 4 9 2 5 1019.1 - 0.0
25/08:00pm 11.2 10.3 7.7 79 1.7 SW 2 9 1 5 1018.9 - 0.0
25/07:30pm 12.0 10.5 8.5 79 1.7 W 6 9 3 5 1018.5 - 0.0
25/07:00pm 12.0 10.0 8.5 79 1.7 W 9 9 5 5 1018.3 - 0.0
25/06:30pm 12.5 10.3 8.0 74 2.2 SW 9 9 5 5 1017.9 - 0.0
25/06:00pm 13.0 10.9 8.1 72 2.4 SW 9 11 5 6 1017.5 1017.6 0.0
25/05:30pm 13.3 10.8 8.0 70 2.6 W 11 13 6 7 1017.2 - 0.0
25/05:00pm 14.0 12.3 8.2 68 2.9 WSW 7 11 4 6 1017.0 - 0.0
25/04:30pm 15.2 13.5 8.2 63 3.5 NW 7 11 4 6 1016.7 - 0.0
25/04:00pm 16.2 14.1 8.4 60 4.0 S 9 15 5 8 1016.4 - 0.0
25/03:30pm 16.4 16.2 8.9 61 3.9 CALM 0 0 0 0 1016.3 - 0.0
25/03:00pm 16.5 16.5 9.7 64 3.6 CALM 0 0 0 0 1016.1 1016.2 0.0
25/02:30pm 16.3 15.1 9.5 64 3.5 WSW 6 7 3 4 1016.0 - 0.0
25/02:00pm 16.5 15.3 9.4 63 3.7 W 6 9 3 5 1015.9 - 0.0
25/01:30pm 16.7 16.3 9.9 64 3.6 W 2 7 1 4 1016.0 - 0.0
25/01:00pm 16.5 15.0 9.0 61 3.9 WNW 7 9 4 5 1016.1 - 0.0
25/12:30pm 17.2 16.1 9.9 62 3.9 NNE 6 7 3 4 1016.5 - 0.0
25/12:00pm 15.8 14.6 9.7 67 3.2 E 6 7 3 4 1016.9 1017.0 0.0
25/11:30am 15.1 15.1 11.1 77 2.1 W 2 7 1 4 1017.3 - 0.0
25/11:00am 14.2 13.4 9.6 74 2.4 NW 4 6 2 3 1017.4 - 0.0
25/10:30am 13.1 12.1 10.3 83 1.5 N 6 11 3 6 1017.4 - 0.0
25/10:00am 10.8 8.8 10.3 97 0.3 ENE 11 15 6 8 1017.4 - 0.0
25/09:30am 9.3 8.8 9.3 100 0.0 NNW 2 7 1 4 1017.3 - 0.0
25/09:00am 8.0 7.2 8.0 100 0.0 NNW 2 7 1 4 1017.1 1017.2 0.8
25/08:38am 7.1 5.7 7.1 100 0.0 SW 4 9 2 5 1016.9 - 0.8
25/08:30am 6.8 5.7 6.8 100 0.0 SSW 2 7 1 4 1016.7 - 0.8
25/08:00am 6.0 5.1 6.0 100 0.0 CALM 0 6 0 3 1016.4 - 0.8
25/07:30am 4.9 3.0 4.9 100 0.0 N 4 7 2 4 1016.1 - 0.8
25/07:09am 5.3 4.2 5.3 100 0.0 CALM 0 0 0 0 1016.0 - 0.8
25/07:00am 5.6 4.2 5.6 100 0.0 SE 2 6 1 3 1015.9 - 0.8
25/06:30am 5.4 4.4 5.4 100 0.0 CALM 0 0 0 0 1016.0 - 0.8
25/06:26am 5.3 4.2 5.3 100 0.0 CALM 0 0 0 0 1015.9 - 0.8
25/06:02am 4.8 2.9 4.8 100 0.0 SSW 4 11 2 6 1015.6 - 0.8
25/06:00am 4.7 3.1 4.7 100 0.0 S 2 11 1 6 1015.6 1015.7 0.8
25/05:39am 5.2 3.7 5.2 100 0.0 S 2 6 1 3 1015.2 - 0.8
25/05:30am 5.3 3.1 5.3 100 0.0 S 6 9 3 5 1015.2 - 0.8
25/05:00am 4.8 3.3 4.8 100 0.0 ENE 2 6 1 3 1015.0 - 0.8
25/04:30am 4.1 2.0 4.1 100 0.0 W 4 11 2 6 1014.9 - 0.8
25/04:15am 4.7 2.2 4.7 100 0.0 SSW 7 11 4 6 1014.7 - 0.8
25/04:02am 5.7 3.4 5.7 100 0.0 ENE 7 9 4 5 1014.7 - 0.8
25/04:00am 6.0 3.8 6.0 100 0.0 ENE 7 9 4 5 1014.7 - 0.8
25/03:40am 5.3 2.5 5.3 100 0.0 NE 9 11 5 6 1014.7 - 0.8
25/03:30am 6.3 4.1 6.3 100 0.0 E 7 11 4 6 1014.7 - 0.8
25/03:22am 6.4 3.9 6.4 100 0.0 E 9 15 5 8 1014.6 - 0.8
25/03:00am 5.6 3.3 5.6 100 0.0 N 7 11 4 6 1014.9 1015.0 0.8
25/02:30am 6.0 3.9 6.0 100 0.0 NNE 6 7 3 4 1014.6 - 0.8
25/02:10am 5.9 3.6 5.9 100 0.0 NNE 7 13 4 7 1014.8 - 0.8
25/02:00am 6.3 4.3 6.3 100 0.0 N 6 11 3 6 1015.0 - 0.8
25/01:30am 7.0 5.0 7.0 100 0.0 NNE 7 13 4 7 1014.8 - 0.8
25/01:00am 6.9 5.4 6.9 100 0.0 E 4 7 2 4 1015.0 - 0.8
25/12:30am 7.0 4.6 7.0 100 0.0 E 9 15 5 8 1015.2 - 0.8
25/12:00am 5.8 3.1 5.7 99 0.0 NE 9 13 5 7 1015.3 1015.4 0.8
 
Date/Time
EST
Temp
°C
App
Temp
°C
Dew
Point
Rel
Hum
%
Delta-T
°C
Wind Press
QNH
hPa
Press
MSL
hPa
Rain
since 9 am
mm
Dir
 
Spd
km/h
Gust
km/h
Spd
kts
Gust
kts
24/11:36pm 6.4 3.8 6.3 99 0.0 ENE 9 11 5 6 1015.5 - 0.8
24/11:30pm 6.8 3.9 6.7 99 0.0 NE 11 15 6 8 1015.3 - 0.8
24/11:17pm 6.3 3.3 6.2 99 0.0 NE 11 13 6 7 1015.5 - 0.8
24/11:13pm 6.1 3.1 6.0 99 0.0 NE 11 13 6 7 1015.5 - 0.8
24/11:00pm 6.5 3.6 6.4 99 0.0 NE 11 13 6 7 1015.5 - 0.8
24/10:57pm 6.3 3.3 6.2 99 0.0 NE 11 13 6 7 1015.5 - 0.8
24/10:30pm 7.7 5.8 7.6 99 0.0 ENE 7 11 4 6 1015.5 - 0.8
24/10:00pm 8.2 6.1 8.1 99 0.0 E 9 15 5 8 1015.6 - 0.8
24/09:30pm 7.7 5.9 7.1 96 0.3 ENE 6 9 3 5 1016.0 - 0.8
24/09:00pm 8.9 6.4 8.1 95 0.4 E 11 15 6 8 1015.8 1015.9 0.8
24/08:30pm 8.8 6.7 8.2 96 0.3 E 9 13 5 7 1015.8 - 0.8
24/08:00pm 8.5 6.3 7.9 96 0.3 E 9 13 5 7 1015.8 - 0.8
24/07:30pm 8.5 6.2 7.4 93 0.5 E 9 13 5 7 1015.9 - 0.8
24/07:00pm 8.2 6.1 6.8 91 0.6 E 7 11 4 6 1015.9 - 0.8
24/06:30pm 8.3 6.4 6.6 89 0.8 ESE 6 9 3 5 1015.7 - 0.8
24/06:00pm 8.2 5.6 6.3 88 0.9 ENE 9 11 5 6 1015.4 1015.5 0.8
24/05:30pm 7.8 5.3 6.4 91 0.6 NE 9 11 5 6 1015.5 - 0.8
24/05:00pm 8.2 5.9 7.6 96 0.3 ENE 9 13 5 7 1015.4 - 0.8
24/04:30pm 8.5 6.4 8.4 99 0.0 NE 9 13 5 7 1015.4 - 0.8
24/04:00pm 8.5 6.0 8.4 99 0.0 NNE 11 15 6 8 1015.3 - 0.8
24/03:30pm 9.0 6.7 8.9 99 0.0 N 11 15 6 8 1015.2 - 0.8
24/03:00pm 9.6 8.4 9.5 99 0.0 E 6 9 3 5 1015.2 1015.3 0.6
24/02:30pm 9.0 7.4 8.9 99 0.0 S 7 11 4 6 1015.3 - 0.6
24/02:00pm 8.3 7.9 8.2 99 0.0 CALM 0 0 0 0 1015.8 - 0.2
24/01:30pm 8.0 5.8 7.9 99 0.0 WNW 9 15 5 8 1016.1 - 0.0
24/01:00pm 8.4 6.9 8.3 99 0.0 W 6 7 3 4 1016.3 - 0.0
24/12:30pm 8.0 6.4 8.0 100 0.0 SE 6 7 3 4 1016.7 - 0.0
24/12:00pm 7.8 6.0 7.8 100 0.0 NNE 7 9 4 5 1017.2 1017.3 0.0
24/11:30am 7.2 5.4 7.2 100 0.0 E 6 11 3 6 1017.6 - 0.0
24/11:25am 7.3 5.5 7.3 100 0.0 E 6 9 3 5 1017.7 - 0.0
24/11:03am 6.6 4.7 6.6 100 0.0 E 6 9 3 5 1018.0 - 0.0
24/11:00am 6.7 4.8 6.7 100 0.0 E 6 11 3 6 1018.0 - 0.0
24/10:48am 6.5 4.4 6.5 100 0.0 E 7 13 4 7 1018.1 - 0.0
24/10:42am 6.7 4.2 6.7 100 0.0 E 9 11 5 6 1018.1 - 0.0
24/10:30am 6.4 3.9 6.4 100 0.0 ESE 9 13 5 7 1018.2 - 0.0
24/10:00am 6.2 4.0 6.2 100 0.0 ENE 7 9 4 5 1018.4 - 0.0
24/09:30am 5.6 2.9 5.6 100 0.0 NE 9 13 5 7 1018.2 - 0.0
24/09:00am 5.4 2.7 5.4 100 0.0 NE 9 13 5 7 1018.0 1018.1 0.0
24/08:30am 6.3 4.7 6.3 100 0.0 WSW 4 7 2 4 1017.8 - 0.0
24/08:00am 6.3 5.1 6.3 100 0.0 S 2 7 1 4 1017.9 - 0.0
24/07:30am 6.3 4.3 6.3 100 0.0 WSW 6 7 3 4 1018.2 - 0.0
24/07:00am 6.3 5.5 6.3 100 0.0 CALM 0 6 0 3 1018.2 - 0.0
24/06:30am 6.1 4.1 6.1 100 0.0 N 6 9 3 5 1018.2 - 0.0
24/06:00am 6.6 4.7 6.6 100 0.0 WNW 6 7 3 4 1018.1 1018.2 0.0
24/05:30am 6.7 5.9 6.7 100 0.0 CALM 0 0 0 0 1017.8 - 0.0

Other Formats:

Comma delimited format used in spreadsheet applications
http://www.bom.gov.au/fwo/IDV60801/IDV60801.94891.axf

JavaScript Object Notation format (JSON) in row-major order
http://www.bom.gov.au/fwo/IDV60801/IDV60801.94891.json